sensor_id;sensor_type;location;lat;lon;timestamp;P1;durP1;ratioP1;P2;durP2;ratioP2
2928;SDS011;1474;51.460;7.150;2022-11-15T00:01:50;4.28;;;2.80;;
2928;SDS011;1474;51.460;7.150;2022-11-15T00:04:16;3.00;;;1.98;;
2928;SDS011;1474;51.460;7.150;2022-11-15T00:06:42;3.63;;;2.30;;
2928;SDS011;1474;51.460;7.150;2022-11-15T00:09:07;3.80;;;2.35;;
2928;SDS011;1474;51.460;7.150;2022-11-15T00:11:33;5.35;;;2.70;;
2928;SDS011;1474;51.460;7.150;2022-11-15T00:13:58;2.90;;;1.92;;
2928;SDS011;1474;51.460;7.150;2022-11-15T00:16:27;4.22;;;2.63;;
2928;SDS011;1474;51.460;7.150;2022-11-15T00:18:52;5.28;;;2.70;;
2928;SDS011;1474;51.460;7.150;2022-11-15T00:21:18;5.20;;;2.83;;
2928;SDS011;1474;51.460;7.150;2022-11-15T00:23:44;2.83;;;2.45;;
2928;SDS011;1474;51.460;7.150;2022-11-15T00:26:11;4.35;;;2.75;;
2928;SDS011;1474;51.460;7.150;2022-11-15T00:28:38;6.35;;;4.80;;
2928;SDS011;1474;51.460;7.150;2022-11-15T00:31:04;2.95;;;2.65;;
2928;SDS011;1474;51.460;7.150;2022-11-15T00:33:35;4.30;;;2.33;;
2928;SDS011;1474;51.460;7.150;2022-11-15T00:36:04;3.25;;;2.83;;
2928;SDS011;1474;51.460;7.150;2022-11-15T00:38:35;2.72;;;2.17;;
2928;SDS011;1474;51.460;7.150;2022-11-15T00:41:02;5.22;;;2.30;;
2928;SDS011;1474;51.460;7.150;2022-11-15T00:43:29;3.95;;;2.42;;
2928;SDS011;1474;51.460;7.150;2022-11-15T00:45:55;2.80;;;1.92;;
2928;SDS011;1474;51.460;7.150;2022-11-15T00:48:20;2.40;;;1.73;;
2928;SDS011;1474;51.460;7.150;2022-11-15T00:50:46;4.00;;;2.03;;
2928;SDS011;1474;51.460;7.150;2022-11-15T00:53:12;7.80;;;2.88;;
2928;SDS011;1474;51.460;7.150;2022-11-15T00:55:37;3.28;;;2.22;;
2928;SDS011;1474;51.460;7.150;2022-11-15T00:58:03;2.58;;;2.38;;
2928;SDS011;1474;51.460;7.150;2022-11-15T01:00:28;3.28;;;1.92;;
2928;SDS011;1474;51.460;7.150;2022-11-15T01:02:54;2.60;;;1.73;;
2928;SDS011;1474;51.460;7.150;2022-11-15T01:05:20;2.25;;;1.80;;
2928;SDS011;1474;51.460;7.150;2022-11-15T01:07:45;2.50;;;2.30;;
2928;SDS011;1474;51.460;7.150;2022-11-15T01:10:11;4.45;;;2.97;;
2928;SDS011;1474;51.460;7.150;2022-11-15T01:12:37;2.28;;;2.03;;
2928;SDS011;1474;51.460;7.150;2022-11-15T01:15:03;6.05;;;3.15;;
2928;SDS011;1474;51.460;7.150;2022-11-15T01:17:29;2.72;;;2.05;;
2928;SDS011;1474;51.460;7.150;2022-11-15T01:19:55;2.55;;;1.80;;
2928;SDS011;1474;51.460;7.150;2022-11-15T01:22:21;3.08;;;2.13;;
2928;SDS011;1474;51.460;7.150;2022-11-15T01:24:48;4.85;;;2.67;;
2928;SDS011;1474;51.460;7.150;2022-11-15T01:27:15;4.18;;;2.28;;
2928;SDS011;1474;51.460;7.150;2022-11-15T01:29:40;4.28;;;2.33;;
2928;SDS011;1474;51.460;7.150;2022-11-15T01:32:06;3.95;;;2.50;;
2928;SDS011;1474;51.460;7.150;2022-11-15T01:34:31;1.58;;;1.48;;
2928;SDS011;1474;51.460;7.150;2022-11-15T01:36:57;2.55;;;1.90;;
2928;SDS011;1474;51.460;7.150;2022-11-15T01:39:23;2.25;;;1.75;;
2928;SDS011;1474;51.460;7.150;2022-11-15T01:41:49;2.47;;;2.28;;
2928;SDS011;1474;51.460;7.150;2022-11-15T01:47:18;4.07;;;2.13;;
2928;SDS011;1474;51.460;7.150;2022-11-15T01:49:50;2.60;;;2.40;;
2928;SDS011;1474;51.460;7.150;2022-11-15T01:52:26;10.27;;;2.33;;
2928;SDS011;1474;51.460;7.150;2022-11-15T01:54:56;2.35;;;1.92;;
2928;SDS011;1474;51.460;7.150;2022-11-15T01:57:38;2.05;;;1.88;;
2928;SDS011;1474;51.460;7.150;2022-11-15T02:00:06;4.95;;;2.80;;
2928;SDS011;1474;51.460;7.150;2022-11-15T02:02:32;1.98;;;1.85;;
2928;SDS011;1474;51.460;7.150;2022-11-15T02:04:59;2.42;;;1.98;;
2928;SDS011;1474;51.460;7.150;2022-11-15T02:07:25;3.58;;;2.13;;
2928;SDS011;1474;51.460;7.150;2022-11-15T02:09:52;3.55;;;2.53;;
2928;SDS011;1474;51.460;7.150;2022-11-15T02:12:19;3.05;;;2.75;;
2928;SDS011;1474;51.460;7.150;2022-11-15T02:14:47;2.83;;;2.45;;
2928;SDS011;1474;51.460;7.150;2022-11-15T02:30:55;2.05;;;1.85;;
2928;SDS011;1474;51.460;7.150;2022-11-15T02:33:32;5.07;;;2.35;;
2928;SDS011;1474;51.460;7.150;2022-11-15T02:39:07;2.70;;;2.10;;
2928;SDS011;1474;51.460;7.150;2022-11-15T02:41:46;2.92;;;2.22;;
2928;SDS011;1474;51.460;7.150;2022-11-15T02:44:25;1.80;;;1.70;;
2928;SDS011;1474;51.460;7.150;2022-11-15T02:46:59;4.32;;;2.10;;
2928;SDS011;1474;51.460;7.150;2022-11-15T02:49:50;3.92;;;2.25;;
2928;SDS011;1474;51.460;7.150;2022-11-15T02:52:17;5.40;;;2.42;;
2928;SDS011;1474;51.460;7.150;2022-11-15T02:55:00;3.28;;;2.65;;
2928;SDS011;1474;51.460;7.150;2022-11-15T03:00:47;2.85;;;2.55;;
2928;SDS011;1474;51.460;7.150;2022-11-15T03:03:28;3.05;;;2.53;;
2928;SDS011;1474;51.460;7.150;2022-11-15T03:06:20;5.03;;;2.53;;
2928;SDS011;1474;51.460;7.150;2022-11-15T03:11:22;4.50;;;2.53;;
2928;SDS011;1474;51.460;7.150;2022-11-15T03:13:58;7.70;;;3.10;;
2928;SDS011;1474;51.460;7.150;2022-11-15T03:16:34;2.80;;;1.95;;
2928;SDS011;1474;51.460;7.150;2022-11-15T03:22:04;2.50;;;2.10;;
2928;SDS011;1474;51.460;7.150;2022-11-15T03:24:34;5.88;;;2.45;;
2928;SDS011;1474;51.460;7.150;2022-11-15T03:27:03;3.15;;;2.65;;
2928;SDS011;1474;51.460;7.150;2022-11-15T03:29:32;3.45;;;2.38;;
2928;SDS011;1474;51.460;7.150;2022-11-15T03:32:06;4.55;;;2.38;;
2928;SDS011;1474;51.460;7.150;2022-11-15T03:37:07;3.33;;;2.28;;
2928;SDS011;1474;51.460;7.150;2022-11-15T03:39:34;3.63;;;2.05;;
2928;SDS011;1474;51.460;7.150;2022-11-15T03:47:24;2.70;;;1.75;;
2928;SDS011;1474;51.460;7.150;2022-11-15T03:50:01;3.25;;;2.72;;
2928;SDS011;1474;51.460;7.150;2022-11-15T03:52:32;3.75;;;3.38;;
2928;SDS011;1474;51.460;7.150;2022-11-15T03:55:00;3.15;;;2.53;;
2928;SDS011;1474;51.460;7.150;2022-11-15T03:57:28;3.22;;;2.55;;
2928;SDS011;1474;51.460;7.150;2022-11-15T03:59:54;3.75;;;2.35;;
2928;SDS011;1474;51.460;7.150;2022-11-15T04:02:19;3.22;;;2.42;;
2928;SDS011;1474;51.460;7.150;2022-11-15T04:04:45;4.20;;;2.38;;
2928;SDS011;1474;51.460;7.150;2022-11-15T04:07:10;6.13;;;2.92;;
2928;SDS011;1474;51.460;7.150;2022-11-15T04:09:36;3.65;;;2.55;;
2928;SDS011;1474;51.460;7.150;2022-11-15T04:12:20;2.92;;;2.30;;
2928;SDS011;1474;51.460;7.150;2022-11-15T04:14:56;2.58;;;1.80;;
2928;SDS011;1474;51.460;7.150;2022-11-15T04:17:32;3.60;;;1.90;;
2928;SDS011;1474;51.460;7.150;2022-11-15T04:19:59;2.20;;;1.95;;
2928;SDS011;1474;51.460;7.150;2022-11-15T04:22:54;2.70;;;2.00;;
2928;SDS011;1474;51.460;7.150;2022-11-15T04:25:40;2.72;;;1.73;;
2928;SDS011;1474;51.460;7.150;2022-11-15T04:28:07;2.50;;;1.90;;
2928;SDS011;1474;51.460;7.150;2022-11-15T04:30:32;3.40;;;2.08;;
2928;SDS011;1474;51.460;7.150;2022-11-15T04:32:58;3.83;;;2.30;;
2928;SDS011;1474;51.460;7.150;2022-11-15T04:35:24;1.98;;;1.55;;
2928;SDS011;1474;51.460;7.150;2022-11-15T04:37:49;3.28;;;2.33;;
2928;SDS011;1474;51.460;7.150;2022-11-15T04:40:15;2.40;;;1.75;;
2928;SDS011;1474;51.460;7.150;2022-11-15T04:42:41;3.03;;;2.50;;
2928;SDS011;1474;51.460;7.150;2022-11-15T04:45:09;3.10;;;2.05;;
2928;SDS011;1474;51.460;7.150;2022-11-15T04:47:35;2.40;;;2.00;;
2928;SDS011;1474;51.460;7.150;2022-11-15T04:50:01;3.47;;;2.10;;
2928;SDS011;1474;51.460;7.150;2022-11-15T04:52:27;2.97;;;1.73;;
2928;SDS011;1474;51.460;7.150;2022-11-15T04:54:55;2.03;;;1.52;;
2928;SDS011;1474;51.460;7.150;2022-11-15T04:57:21;2.28;;;1.48;;
2928;SDS011;1474;51.460;7.150;2022-11-15T04:59:46;2.67;;;1.85;;
2928;SDS011;1474;51.460;7.150;2022-11-15T05:02:12;2.95;;;2.33;;
2928;SDS011;1474;51.460;7.150;2022-11-15T05:04:37;3.75;;;2.05;;
2928;SDS011;1474;51.460;7.150;2022-11-15T05:07:03;2.78;;;1.98;;
2928;SDS011;1474;51.460;7.150;2022-11-15T05:09:32;4.18;;;2.38;;
2928;SDS011;1474;51.460;7.150;2022-11-15T05:11:57;3.50;;;2.38;;
2928;SDS011;1474;51.460;7.150;2022-11-15T05:14:23;2.53;;;1.83;;
2928;SDS011;1474;51.460;7.150;2022-11-15T05:16:48;2.90;;;2.08;;
2928;SDS011;1474;51.460;7.150;2022-11-15T05:19:14;2.38;;;1.75;;
2928;SDS011;1474;51.460;7.150;2022-11-15T05:21:40;2.53;;;1.90;;
2928;SDS011;1474;51.460;7.150;2022-11-15T05:24:06;2.75;;;2.17;;
2928;SDS011;1474;51.460;7.150;2022-11-15T05:26:32;3.83;;;2.28;;
2928;SDS011;1474;51.460;7.150;2022-11-15T05:28:58;3.28;;;2.20;;
2928;SDS011;1474;51.460;7.150;2022-11-15T05:31:24;2.75;;;2.42;;
2928;SDS011;1474;51.460;7.150;2022-11-15T05:33:51;2.33;;;1.85;;
2928;SDS011;1474;51.460;7.150;2022-11-15T05:36:24;3.42;;;2.63;;
2928;SDS011;1474;51.460;7.150;2022-11-15T05:38:51;3.58;;;2.78;;
2928;SDS011;1474;51.460;7.150;2022-11-15T05:41:17;3.33;;;2.15;;
2928;SDS011;1474;51.460;7.150;2022-11-15T05:43:45;2.92;;;2.22;;
2928;SDS011;1474;51.460;7.150;2022-11-15T05:46:13;2.67;;;2.30;;
2928;SDS011;1474;51.460;7.150;2022-11-15T05:48:39;3.47;;;2.55;;
2928;SDS011;1474;51.460;7.150;2022-11-15T05:51:08;4.07;;;2.17;;
2928;SDS011;1474;51.460;7.150;2022-11-15T05:53:34;2.47;;;1.98;;
2928;SDS011;1474;51.460;7.150;2022-11-15T05:56:02;3.47;;;2.70;;
2928;SDS011;1474;51.460;7.150;2022-11-15T05:58:28;2.08;;;1.50;;
2928;SDS011;1474;51.460;7.150;2022-11-15T06:00:57;2.58;;;2.35;;
2928;SDS011;1474;51.460;7.150;2022-11-15T06:03:22;3.13;;;2.30;;
2928;SDS011;1474;51.460;7.150;2022-11-15T06:05:48;1.60;;;1.27;;
2928;SDS011;1474;51.460;7.150;2022-11-15T06:08:13;3.50;;;2.50;;
2928;SDS011;1474;51.460;7.150;2022-11-15T06:10:42;2.45;;;1.83;;
2928;SDS011;1474;51.460;7.150;2022-11-15T06:13:08;3.38;;;2.13;;
2928;SDS011;1474;51.460;7.150;2022-11-15T06:15:33;3.05;;;1.90;;
2928;SDS011;1474;51.460;7.150;2022-11-15T06:17:59;5.47;;;1.88;;
2928;SDS011;1474;51.460;7.150;2022-11-15T06:20:25;2.63;;;1.85;;
2928;SDS011;1474;51.460;7.150;2022-11-15T06:23:10;2.65;;;2.45;;
2928;SDS011;1474;51.460;7.150;2022-11-15T06:25:36;4.15;;;2.22;;
2928;SDS011;1474;51.460;7.150;2022-11-15T06:28:02;3.47;;;2.65;;
2928;SDS011;1474;51.460;7.150;2022-11-15T06:30:28;2.03;;;1.70;;
2928;SDS011;1474;51.460;7.150;2022-11-15T06:33:00;1.67;;;1.58;;
2928;SDS011;1474;51.460;7.150;2022-11-15T06:35:30;1.95;;;1.60;;
2928;SDS011;1474;51.460;7.150;2022-11-15T06:38:05;2.72;;;1.75;;
2928;SDS011;1474;51.460;7.150;2022-11-15T06:40:35;2.45;;;1.65;;
2928;SDS011;1474;51.460;7.150;2022-11-15T06:43:02;2.22;;;1.50;;
2928;SDS011;1474;51.460;7.150;2022-11-15T06:45:29;3.10;;;2.05;;
2928;SDS011;1474;51.460;7.150;2022-11-15T06:47:54;5.10;;;2.17;;
2928;SDS011;1474;51.460;7.150;2022-11-15T06:50:20;1.80;;;1.52;;
2928;SDS011;1474;51.460;7.150;2022-11-15T06:52:46;1.38;;;1.27;;
2928;SDS011;1474;51.460;7.150;2022-11-15T06:55:12;3.67;;;1.58;;
2928;SDS011;1474;51.460;7.150;2022-11-15T06:57:43;1.85;;;1.63;;
2928;SDS011;1474;51.460;7.150;2022-11-15T07:00:18;1.40;;;1.30;;
2928;SDS011;1474;51.460;7.150;2022-11-15T07:02:45;1.77;;;1.20;;
2928;SDS011;1474;51.460;7.150;2022-11-15T07:05:12;1.67;;;1.10;;
2928;SDS011;1474;51.460;7.150;2022-11-15T07:07:38;6.07;;;1.45;;
2928;SDS011;1474;51.460;7.150;2022-11-15T07:10:04;1.98;;;1.30;;
2928;SDS011;1474;51.460;7.150;2022-11-15T07:12:31;2.28;;;1.45;;
2928;SDS011;1474;51.460;7.150;2022-11-15T07:14:56;1.73;;;1.20;;
2928;SDS011;1474;51.460;7.150;2022-11-15T07:17:22;1.70;;;1.25;;
2928;SDS011;1474;51.460;7.150;2022-11-15T07:19:47;2.13;;;1.00;;
2928;SDS011;1474;51.460;7.150;2022-11-15T07:22:13;1.60;;;1.50;;
2928;SDS011;1474;51.460;7.150;2022-11-15T07:24:39;1.05;;;0.90;;
2928;SDS011;1474;51.460;7.150;2022-11-15T07:27:04;1.48;;;1.10;;
2928;SDS011;1474;51.460;7.150;2022-11-15T07:29:30;1.35;;;0.95;;
2928;SDS011;1474;51.460;7.150;2022-11-15T07:31:55;1.05;;;0.93;;
2928;SDS011;1474;51.460;7.150;2022-11-15T07:34:21;0.95;;;0.82;;
2928;SDS011;1474;51.460;7.150;2022-11-15T07:36:47;0.63;;;0.45;;
2928;SDS011;1474;51.460;7.150;2022-11-15T07:39:12;1.38;;;1.27;;
2928;SDS011;1474;51.460;7.150;2022-11-15T07:41:39;0.60;;;0.43;;
2928;SDS011;1474;51.460;7.150;2022-11-15T07:44:05;1.67;;;1.42;;
2928;SDS011;1474;51.460;7.150;2022-11-15T07:46:30;2.03;;;1.23;;
2928;SDS011;1474;51.460;7.150;2022-11-15T07:48:56;1.48;;;0.93;;
2928;SDS011;1474;51.460;7.150;2022-11-15T07:51:22;1.48;;;1.00;;
2928;SDS011;1474;51.460;7.150;2022-11-15T07:53:48;0.98;;;0.85;;
2928;SDS011;1474;51.460;7.150;2022-11-15T07:56:14;1.10;;;1.00;;
2928;SDS011;1474;51.460;7.150;2022-11-15T07:58:40;0.93;;;0.77;;
2928;SDS011;1474;51.460;7.150;2022-11-15T08:01:07;1.58;;;0.98;;
2928;SDS011;1474;51.460;7.150;2022-11-15T08:03:33;1.08;;;0.98;;
2928;SDS011;1474;51.460;7.150;2022-11-15T08:05:59;1.15;;;0.93;;
2928;SDS011;1474;51.460;7.150;2022-11-15T08:08:25;1.10;;;0.70;;
2928;SDS011;1474;51.460;7.150;2022-11-15T08:10:51;0.65;;;0.57;;
2928;SDS011;1474;51.460;7.150;2022-11-15T08:13:16;0.70;;;0.70;;
2928;SDS011;1474;51.460;7.150;2022-11-15T08:15:42;3.72;;;1.35;;
2928;SDS011;1474;51.460;7.150;2022-11-15T08:18:09;1.23;;;0.55;;
2928;SDS011;1474;51.460;7.150;2022-11-15T08:20:40;1.35;;;1.13;;
2928;SDS011;1474;51.460;7.150;2022-11-15T08:23:06;1.48;;;0.82;;
2928;SDS011;1474;51.460;7.150;2022-11-15T08:25:33;0.60;;;0.45;;
2928;SDS011;1474;51.460;7.150;2022-11-15T08:28:00;0.82;;;0.70;;
2928;SDS011;1474;51.460;7.150;2022-11-15T08:30:28;0.80;;;0.80;;
2928;SDS011;1474;51.460;7.150;2022-11-15T08:32:55;0.65;;;0.50;;
2928;SDS011;1474;51.460;7.150;2022-11-15T08:35:22;5.55;;;1.02;;
2928;SDS011;1474;51.460;7.150;2022-11-15T08:37:49;1.58;;;1.08;;
2928;SDS011;1474;51.460;7.150;2022-11-15T08:40:17;1.65;;;0.75;;
2928;SDS011;1474;51.460;7.150;2022-11-15T08:42:45;0.70;;;0.43;;
2928;SDS011;1474;51.460;7.150;2022-11-15T08:47:40;0.47;;;0.45;;
2928;SDS011;1474;51.460;7.150;2022-11-15T08:50:05;0.60;;;0.45;;
2928;SDS011;1474;51.460;7.150;2022-11-15T08:52:31;2.03;;;0.85;;
2928;SDS011;1474;51.460;7.150;2022-11-15T08:54:57;0.70;;;0.70;;
2928;SDS011;1474;51.460;7.150;2022-11-15T08:57:23;0.98;;;0.55;;
2928;SDS011;1474;51.460;7.150;2022-11-15T08:59:49;1.70;;;0.63;;
2928;SDS011;1474;51.460;7.150;2022-11-15T09:02:18;1.00;;;0.77;;
2928;SDS011;1474;51.460;7.150;2022-11-15T09:04:43;2.53;;;0.80;;
2928;SDS011;1474;51.460;7.150;2022-11-15T09:07:10;0.63;;;0.50;;
2928;SDS011;1474;51.460;7.150;2022-11-15T09:09:36;1.55;;;0.90;;
2928;SDS011;1474;51.460;7.150;2022-11-15T09:12:03;1.23;;;1.13;;
2928;SDS011;1474;51.460;7.150;2022-11-15T09:14:29;0.40;;;0.38;;
2928;SDS011;1474;51.460;7.150;2022-11-15T09:16:55;1.13;;;0.73;;
2928;SDS011;1474;51.460;7.150;2022-11-15T09:19:21;0.57;;;0.57;;
2928;SDS011;1474;51.460;7.150;2022-11-15T09:21:46;0.40;;;0.40;;
2928;SDS011;1474;51.460;7.150;2022-11-15T09:24:12;0.70;;;0.70;;
2928;SDS011;1474;51.460;7.150;2022-11-15T09:26:38;0.80;;;0.60;;
2928;SDS011;1474;51.460;7.150;2022-11-15T09:29:04;1.85;;;0.40;;
2928;SDS011;1474;51.460;7.150;2022-11-15T09:31:30;0.40;;;0.40;;
2928;SDS011;1474;51.460;7.150;2022-11-15T09:33:56;3.42;;;0.40;;
2928;SDS011;1474;51.460;7.150;2022-11-15T09:36:21;1.55;;;0.80;;
2928;SDS011;1474;51.460;7.150;2022-11-15T09:38:47;1.77;;;0.70;;
2928;SDS011;1474;51.460;7.150;2022-11-15T09:49:17;0.88;;;0.80;;
2928;SDS011;1474;51.460;7.150;2022-11-15T09:51:48;0.30;;;0.30;;
2928;SDS011;1474;51.460;7.150;2022-11-15T09:54:19;0.60;;;0.47;;
2928;SDS011;1474;51.460;7.150;2022-11-15T09:56:56;1.20;;;0.60;;
2928;SDS011;1474;51.460;7.150;2022-11-15T10:07:42;0.32;;;0.32;;
2928;SDS011;1474;51.460;7.150;2022-11-15T10:10:22;10.35;;;1.17;;
2928;SDS011;1474;51.460;7.150;2022-11-15T10:13:23;2.42;;;0.60;;
2928;SDS011;1474;51.460;7.150;2022-11-15T10:16:01;0.40;;;0.40;;
2928;SDS011;1474;51.460;7.150;2022-11-15T10:21:29;6.95;;;0.40;;
2928;SDS011;1474;51.460;7.150;2022-11-15T10:24:15;0.65;;;0.63;;
2928;SDS011;1474;51.460;7.150;2022-11-15T10:26:47;0.50;;;0.50;;
2928;SDS011;1474;51.460;7.150;2022-11-15T10:29:23;1.00;;;0.70;;
2928;SDS011;1474;51.460;7.150;2022-11-15T10:31:50;0.43;;;0.35;;
2928;SDS011;1474;51.460;7.150;2022-11-15T10:34:20;0.32;;;0.28;;
2928;SDS011;1474;51.460;7.150;2022-11-15T10:36:57;0.30;;;0.30;;
2928;SDS011;1474;51.460;7.150;2022-11-15T10:39:24;1.55;;;0.52;;
2928;SDS011;1474;51.460;7.150;2022-11-15T10:41:50;0.57;;;0.47;;
2928;SDS011;1474;51.460;7.150;2022-11-15T10:51:55;0.60;;;0.57;;
2928;SDS011;1474;51.460;7.150;2022-11-15T10:54:36;0.80;;;0.60;;
2928;SDS011;1474;51.460;7.150;2022-11-15T10:57:10;0.93;;;0.82;;
2928;SDS011;1474;51.460;7.150;2022-11-15T10:59:39;0.60;;;0.40;;
2928;SDS011;1474;51.460;7.150;2022-11-15T11:05:02;0.65;;;0.35;;
2928;SDS011;1474;51.460;7.150;2022-11-15T11:07:30;0.50;;;0.50;;
2928;SDS011;1474;51.460;7.150;2022-11-15T11:10:18;0.95;;;0.28;;
2928;SDS011;1474;51.460;7.150;2022-11-15T11:12:45;1.05;;;0.60;;
2928;SDS011;1474;51.460;7.150;2022-11-15T11:15:12;1.23;;;0.30;;
2928;SDS011;1474;51.460;7.150;2022-11-15T11:20:43;1.02;;;0.85;;
2928;SDS011;1474;51.460;7.150;2022-11-15T11:25:53;0.50;;;0.38;;
2928;SDS011;1474;51.460;7.150;2022-11-15T11:31:14;0.30;;;0.30;;
2928;SDS011;1474;51.460;7.150;2022-11-15T11:39:29;1.10;;;0.50;;
2928;SDS011;1474;51.460;7.150;2022-11-15T11:44:54;2.90;;;0.68;;
2928;SDS011;1474;51.460;7.150;2022-11-15T11:47:32;0.45;;;0.20;;
2928;SDS011;1474;51.460;7.150;2022-11-15T11:52:39;0.65;;;0.43;;
2928;SDS011;1474;51.460;7.150;2022-11-15T11:55:17;3.20;;;0.82;;
2928;SDS011;1474;51.460;7.150;2022-11-15T11:57:53;0.57;;;0.30;;
2928;SDS011;1474;51.460;7.150;2022-11-15T12:00:23;1.40;;;0.30;;
2928;SDS011;1474;51.460;7.150;2022-11-15T12:05:54;0.22;;;0.22;;
2928;SDS011;1474;51.460;7.150;2022-11-15T12:08:40;0.25;;;0.20;;
2928;SDS011;1474;51.460;7.150;2022-11-15T12:13:46;0.20;;;0.20;;
2928;SDS011;1474;51.460;7.150;2022-11-15T12:16:23;0.20;;;0.20;;
2928;SDS011;1474;51.460;7.150;2022-11-15T12:18:56;0.30;;;0.30;;
2928;SDS011;1474;51.460;7.150;2022-11-15T12:21:36;1.70;;;0.28;;
2928;SDS011;1474;51.460;7.150;2022-11-15T12:24:18;0.05;;;0.05;;
2928;SDS011;1474;51.460;7.150;2022-11-15T12:26:57;0.22;;;0.22;;
2928;SDS011;1474;51.460;7.150;2022-11-15T12:29:37;0.80;;;0.40;;
2928;SDS011;1474;51.460;7.150;2022-11-15T12:32:31;0.85;;;0.20;;
2928;SDS011;1474;51.460;7.150;2022-11-15T12:35:00;1.02;;;0.30;;
2928;SDS011;1474;51.460;7.150;2022-11-15T12:42:36;0.20;;;0.20;;
2928;SDS011;1474;51.460;7.150;2022-11-15T12:45:22;1.02;;;0.30;;
2928;SDS011;1474;51.460;7.150;2022-11-15T12:47:56;0.30;;;0.30;;
2928;SDS011;1474;51.460;7.150;2022-11-15T12:56:35;3.10;;;0.40;;
2928;SDS011;1474;51.460;7.150;2022-11-15T12:58:49;0.93;;;0.32;;
2928;SDS011;1474;51.460;7.150;2022-11-15T13:06:48;1.23;;;0.52;;
2928;SDS011;1474;51.460;7.150;2022-11-15T13:11:57;0.20;;;0.20;;
2928;SDS011;1474;51.460;7.150;2022-11-15T13:19:59;0.22;;;0.22;;
2928;SDS011;1474;51.460;7.150;2022-11-15T13:22:28;1.00;;;0.40;;
2928;SDS011;1474;51.460;7.150;2022-11-15T13:25:26;0.73;;;0.28;;
2928;SDS011;1474;51.460;7.150;2022-11-15T13:27:55;0.82;;;0.30;;
2928;SDS011;1474;51.460;7.150;2022-11-15T13:30:25;3.03;;;0.38;;
2928;SDS011;1474;51.460;7.150;2022-11-15T13:32:55;0.95;;;0.55;;
2928;SDS011;1474;51.460;7.150;2022-11-15T13:35:27;1.65;;;0.40;;
2928;SDS011;1474;51.460;7.150;2022-11-15T13:37:55;0.20;;;0.20;;
2928;SDS011;1474;51.460;7.150;2022-11-15T13:40:24;2.35;;;0.52;;
2928;SDS011;1474;51.460;7.150;2022-11-15T13:42:55;2.53;;;0.70;;
2928;SDS011;1474;51.460;7.150;2022-11-15T13:45:22;0.75;;;0.30;;
2928;SDS011;1474;51.460;7.150;2022-11-15T13:47:53;0.43;;;0.20;;
2928;SDS011;1474;51.460;7.150;2022-11-15T13:50:26;0.22;;;0.17;;
2928;SDS011;1474;51.460;7.150;2022-11-15T13:52:58;0.63;;;0.38;;
2928;SDS011;1474;51.460;7.150;2022-11-15T13:55:26;2.85;;;0.38;;
2928;SDS011;1474;51.460;7.150;2022-11-15T13:58:02;0.15;;;0.15;;
2928;SDS011;1474;51.460;7.150;2022-11-15T14:11:33;0.70;;;0.60;;
2928;SDS011;1474;51.460;7.150;2022-11-15T14:16:41;2.08;;;0.68;;
2928;SDS011;1474;51.460;7.150;2022-11-15T14:19:11;0.30;;;0.20;;
2928;SDS011;1474;51.460;7.150;2022-11-15T14:22:18;0.57;;;0.32;;
2928;SDS011;1474;51.460;7.150;2022-11-15T14:24:47;1.25;;;0.30;;
2928;SDS011;1474;51.460;7.150;2022-11-15T14:27:35;1.60;;;0.40;;
2928;SDS011;1474;51.460;7.150;2022-11-15T14:30:00;2.70;;;0.43;;
2928;SDS011;1474;51.460;7.150;2022-11-15T14:32:43;0.60;;;0.50;;
2928;SDS011;1474;51.460;7.150;2022-11-15T14:35:14;0.60;;;0.40;;
2928;SDS011;1474;51.460;7.150;2022-11-15T14:37:45;0.52;;;0.40;;
2928;SDS011;1474;51.460;7.150;2022-11-15T14:40:13;0.68;;;0.68;;
2928;SDS011;1474;51.460;7.150;2022-11-15T14:42:40;0.88;;;0.40;;
2928;SDS011;1474;51.460;7.150;2022-11-15T14:45:26;0.57;;;0.57;;
2928;SDS011;1474;51.460;7.150;2022-11-15T14:47:52;0.68;;;0.63;;
2928;SDS011;1474;51.460;7.150;2022-11-15T14:50:19;0.95;;;0.70;;
2928;SDS011;1474;51.460;7.150;2022-11-15T14:52:45;0.50;;;0.50;;
2928;SDS011;1474;51.460;7.150;2022-11-15T14:55:16;5.78;;;1.02;;
2928;SDS011;1474;51.460;7.150;2022-11-15T14:57:45;1.15;;;0.70;;
2928;SDS011;1474;51.460;7.150;2022-11-15T15:00:11;1.00;;;0.77;;
2928;SDS011;1474;51.460;7.150;2022-11-15T15:02:41;3.00;;;1.25;;
2928;SDS011;1474;51.460;7.150;2022-11-15T15:05:18;0.95;;;0.85;;
2928;SDS011;1474;51.460;7.150;2022-11-15T15:07:46;1.33;;;0.88;;
2928;SDS011;1474;51.460;7.150;2022-11-15T15:10:12;2.40;;;1.00;;
2928;SDS011;1474;51.460;7.150;2022-11-15T15:12:38;1.65;;;1.08;;
2928;SDS011;1474;51.460;7.150;2022-11-15T15:15:04;1.05;;;0.70;;
2928;SDS011;1474;51.460;7.150;2022-11-15T15:17:31;1.50;;;0.80;;
2928;SDS011;1474;51.460;7.150;2022-11-15T15:19:56;2.72;;;1.08;;
2928;SDS011;1474;51.460;7.150;2022-11-15T15:22:22;1.30;;;0.80;;
2928;SDS011;1474;51.460;7.150;2022-11-15T15:24:51;2.95;;;0.68;;
2928;SDS011;1474;51.460;7.150;2022-11-15T15:27:16;1.80;;;1.48;;
2928;SDS011;1474;51.460;7.150;2022-11-15T15:29:42;1.48;;;0.80;;
2928;SDS011;1474;51.460;7.150;2022-11-15T15:32:08;3.10;;;0.93;;
2928;SDS011;1474;51.460;7.150;2022-11-15T15:34:35;1.88;;;1.08;;
2928;SDS011;1474;51.460;7.150;2022-11-15T15:37:07;1.67;;;0.40;;
2928;SDS011;1474;51.460;7.150;2022-11-15T15:39:53;0.98;;;0.80;;
2928;SDS011;1474;51.460;7.150;2022-11-15T15:42:20;1.05;;;0.90;;
2928;SDS011;1474;51.460;7.150;2022-11-15T15:44:47;0.80;;;0.63;;
2928;SDS011;1474;51.460;7.150;2022-11-15T15:47:16;1.08;;;0.80;;
2928;SDS011;1474;51.460;7.150;2022-11-15T15:49:43;3.60;;;1.95;;
2928;SDS011;1474;51.460;7.150;2022-11-15T15:52:09;1.15;;;0.75;;
2928;SDS011;1474;51.460;7.150;2022-11-15T15:54:35;3.50;;;1.35;;
2928;SDS011;1474;51.460;7.150;2022-11-15T15:57:01;1.98;;;0.90;;
2928;SDS011;1474;51.460;7.150;2022-11-15T15:59:26;1.92;;;0.93;;
2928;SDS011;1474;51.460;7.150;2022-11-15T16:01:52;1.10;;;0.85;;
2928;SDS011;1474;51.460;7.150;2022-11-15T16:04:18;1.77;;;1.23;;
2928;SDS011;1474;51.460;7.150;2022-11-15T16:06:43;1.85;;;1.02;;
2928;SDS011;1474;51.460;7.150;2022-11-15T16:09:15;1.83;;;0.82;;
2928;SDS011;1474;51.460;7.150;2022-11-15T16:11:43;0.60;;;0.60;;
2928;SDS011;1474;51.460;7.150;2022-11-15T16:14:10;1.02;;;0.80;;
2928;SDS011;1474;51.460;7.150;2022-11-15T16:16:37;1.60;;;0.93;;
2928;SDS011;1474;51.460;7.150;2022-11-15T16:19:03;2.88;;;0.82;;
2928;SDS011;1474;51.460;7.150;2022-11-15T16:21:29;0.82;;;0.70;;
2928;SDS011;1474;51.460;7.150;2022-11-15T16:23:55;2.25;;;1.50;;
2928;SDS011;1474;51.460;7.150;2022-11-15T16:26:22;1.60;;;0.88;;
2928;SDS011;1474;51.460;7.150;2022-11-15T16:28:50;2.08;;;0.93;;
2928;SDS011;1474;51.460;7.150;2022-11-15T16:31:17;1.17;;;0.90;;
2928;SDS011;1474;51.460;7.150;2022-11-15T16:33:45;2.58;;;0.77;;
2928;SDS011;1474;51.460;7.150;2022-11-15T16:38:45;1.20;;;0.93;;
2928;SDS011;1474;51.460;7.150;2022-11-15T16:41:11;1.20;;;0.75;;
2928;SDS011;1474;51.460;7.150;2022-11-15T16:43:36;0.38;;;0.38;;
2928;SDS011;1474;51.460;7.150;2022-11-15T16:46:18;1.38;;;1.00;;
2928;SDS011;1474;51.460;7.150;2022-11-15T16:48:51;0.95;;;0.85;;
2928;SDS011;1474;51.460;7.150;2022-11-15T16:51:20;1.83;;;1.00;;
2928;SDS011;1474;51.460;7.150;2022-11-15T16:53:47;1.38;;;0.52;;
2928;SDS011;1474;51.460;7.150;2022-11-15T16:58:45;0.80;;;0.60;;
2928;SDS011;1474;51.460;7.150;2022-11-15T17:01:15;1.35;;;1.00;;
2928;SDS011;1474;51.460;7.150;2022-11-15T17:03:43;1.08;;;0.90;;
2928;SDS011;1474;51.460;7.150;2022-11-15T17:06:09;3.58;;;0.75;;
2928;SDS011;1474;51.460;7.150;2022-11-15T17:08:38;2.08;;;1.15;;
2928;SDS011;1474;51.460;7.150;2022-11-15T17:11:05;2.83;;;1.20;;
2928;SDS011;1474;51.460;7.150;2022-11-15T17:13:33;1.55;;;0.98;;
2928;SDS011;1474;51.460;7.150;2022-11-15T17:16:06;1.13;;;1.00;;
2928;SDS011;1474;51.460;7.150;2022-11-15T17:18:33;1.33;;;0.80;;
2928;SDS011;1474;51.460;7.150;2022-11-15T17:21:04;0.55;;;0.55;;
2928;SDS011;1474;51.460;7.150;2022-11-15T17:23:37;1.42;;;0.93;;
2928;SDS011;1474;51.460;7.150;2022-11-15T17:26:03;2.15;;;1.00;;
2928;SDS011;1474;51.460;7.150;2022-11-15T17:28:32;0.93;;;0.80;;
2928;SDS011;1474;51.460;7.150;2022-11-15T17:30:58;1.35;;;0.90;;
2928;SDS011;1474;51.460;7.150;2022-11-15T17:33:24;1.20;;;0.70;;
2928;SDS011;1474;51.460;7.150;2022-11-15T17:35:58;1.10;;;1.00;;
2928;SDS011;1474;51.460;7.150;2022-11-15T17:38:25;0.85;;;0.70;;
2928;SDS011;1474;51.460;7.150;2022-11-15T17:41:05;1.23;;;1.10;;
2928;SDS011;1474;51.460;7.150;2022-11-15T17:43:37;0.52;;;0.52;;
2928;SDS011;1474;51.460;7.150;2022-11-15T17:46:03;0.95;;;0.80;;